Aérodrome :
LOGIN :

S'inscrire | Disclaimer

   EN    FR    IT 

 










Légende :    VFR   VFR Marginal   IFR   IFR Intensif   IFR Très Intensif
Visi : 
Plafond : 
>= 8 km
>= 3000ft
5 à 8 km
1000 à 3000 ft
1500m à 5 km
500 à 1000 ft
800 à 1500m
200 à 500 ft
< 800m
< 200 ft
Symboles :   Orages  Brouillard  Fortes neiges  Fortes précipitations  Vent > 20 kt
SIGMETs :   Divers  Orages  Givrage  Turbulence  Onde Orograph.  Cendres Volcan.







- Altitude de l'aérodrome : 235 ft
- Code IATA : BZG


EPBY - Bydgoszcz

DERNIER METAR :
  • 231630Z 26008KT 7000 -TSRA FEW003 SCT053CB 14/13 Q1009

METARs EXPIRÉS :
  • 231600Z 29011KT 9999 -TSRA FEW037 SCT051CB 15/12 Q1009
  • 231530Z 23008KT 9999 -SHRA FEW028 SCT054CB 15/13 Q1008 RETSRA
  • 231500Z 24016KT 6000 TSRA BKN054CB 16/13 Q1008
  • 231430Z 26014KT 9999 -TSRA SCT047CB 21/10 Q1008
  • 231400Z 25008KT 220V280 9999 -SHRA SCT047CB 22/12 Q1008

TAF TAF EPBY
Valide du 23 à 12h jusqu'au 24 à 12h UTC


231130Z 2312/2412 20010KT CAVOK
TEMPO 2312/2320 4000 SHRA BKN020CB
BECMG 2313/2315 29012KT
PROB40
TEMPO 2314/2318 VRB18G30KT 2000 TSRA BKN005 BKN012CB
Pas de NOTAMs connus pour ce terrain.
1 SIGMET publié pour la FIR Warszawa (EPWW) :
 
Orages fréquents avec grêle
EPWW SIGMET 2 VALID 231415/231815 EPWA
EPWW WARSAW FIR FRQ TSGR OBS W OF E020 TOP FL370 MOV E NC=



MET'MAP, la Météo Aéronautique d'un coup d'oeil ! - Copyright ORBIFLY Décembre 2007 - Disclaimer

ORBIFLY MET'MAP TEAM :

Programmation & Développement : Alexandra Zaïnal
Conception & Développement : Baudouin d'Aumeries
Co-Programmation & Développement : Marc-Olivier Méhu
Soutien technique & logistique : Manuel Goepfert

Contact : metmap@orbifly.com




SOURCES & CREDITS :

   NOAA